Time;durP1;ratioP1;P1;durP2;ratioP2;P2;SDS_P1;SDS_P2;PMS_P1;PMS_P2;Temp;Humidity;BMP_temperature;BMP_pressure;BME280_temperature;BME280_humidity;BME280_pressure;Samples;Min_cycle;Max_cycle;Signal;HPM_P1;HPM_P2
2021/09/13 00:00:39;;;;;;;3.70;2.57;;;;;;;15.68;100.00;101153.22;5073158;28;20445;-70
2021/09/13 00:03:07;;;;;;;4.90;3.23;;;;;;;15.67;100.00;101151.56;5072994;28;20792;-70
2021/09/13 00:05:33;;;;;;;5.40;3.13;;;;;;;15.60;100.00;101149.31;5073021;28;20469;-68
2021/09/13 00:07:59;;;;;;;3.77;2.80;;;;;;;15.57;100.00;101144.47;5073034;28;20800;-69
2021/09/13 00:10:26;;;;;;;4.57;3.70;;;;;;;15.57;100.00;101149.94;5073028;28;20498;-70
2021/09/13 00:12:52;;;;;;;7.30;2.43;;;;;;;15.43;100.00;101152.81;5072979;28;20437;-70
2021/09/13 00:15:19;;;;;;;5.03;3.13;;;;;;;15.28;100.00;101145.13;5073058;28;20460;-69
2021/09/13 00:17:46;;;;;;;4.90;3.13;;;;;;;15.13;100.00;101146.34;5072971;28;20445;-70
2021/09/13 00:20:14;;;;;;;6.63;4.00;;;;;;;15.08;100.00;101138.31;5072988;28;20460;-69
2021/09/13 00:22:40;;;;;;;4.67;2.80;;;;;;;15.01;100.00;101148.91;5072853;28;20433;-70
2021/09/13 00:25:08;;;;;;;4.70;3.13;;;;;;;15.00;100.00;101147.28;5072831;28;20927;-70
2021/09/13 00:27:35;;;;;;;2.77;2.43;;;;;;;14.95;100.00;101155.59;5072875;28;20448;-70
2021/09/13 00:30:01;;;;;;;5.87;2.97;;;;;;;14.96;100.00;101154.47;5072830;28;20445;-69
2021/09/13 00:32:27;;;;;;;4.93;3.07;;;;;;;15.02;100.00;101155.97;5072531;28;20444;-70
2021/09/13 00:34:54;;;;;;;7.63;2.90;;;;;;;15.00;100.00;101155.47;5072705;28;20440;-69
2021/09/13 00:37:22;;;;;;;4.87;2.60;;;;;;;14.99;100.00;101162.03;5072853;28;20437;-70
2021/09/13 00:39:48;;;;;;;4.57;3.30;;;;;;;14.99;100.00;101149.19;5074547;28;20436;-68
2021/09/13 00:42:15;;;;;;;5.90;2.73;;;;;;;15.02;100.00;101166.88;5076702;28;20464;-69
2021/09/13 00:44:41;;;;;;;3.43;2.53;;;;;;;15.03;100.00;101163.81;5076150;28;21016;-69
2021/09/13 00:47:08;;;;;;;5.23;3.73;;;;;;;14.95;100.00;101156.41;5076296;28;20864;-70
2021/09/13 00:49:34;;;;;;;5.53;3.00;;;;;;;15.02;100.00;101158.69;5076388;28;20440;-70
2021/09/13 00:52:01;;;;;;;6.93;2.37;;;;;;;15.04;100.00;101164.63;5076439;28;20441;-69
2021/09/13 00:54:28;;;;;;;6.70;3.40;;;;;;;14.98;100.00;101163.16;5076331;28;20460;-70
2021/09/13 00:56:55;;;;;;;4.30;2.97;;;;;;;14.94;100.00;101160.25;5076302;28;20468;-69
2021/09/13 00:59:22;;;;;;;4.93;3.03;;;;;;;14.88;100.00;101156.09;5076309;28;20444;-69
2021/09/13 01:01:48;;;;;;;3.80;2.80;;;;;;;14.91;100.00;101155.44;5075940;28;20449;-69
2021/09/13 01:04:15;;;;;;;5.40;3.50;;;;;;;14.89;100.00;101153.03;5076127;28;20484;-69
2021/09/13 01:06:41;;;;;;;3.90;2.60;;;;;;;14.86;100.00;101152.84;5076094;28;20468;-69
2021/09/13 01:09:08;;;;;;;5.70;3.40;;;;;;;14.83;100.00;101154.31;5076114;28;20817;-69
2021/09/13 01:11:36;;;;;;;5.87;2.87;;;;;;;14.82;100.00;101149.94;5076027;28;20445;-69
2021/09/13 01:14:03;;;;;;;3.07;2.60;;;;;;;14.79;100.00;101156.06;5075967;28;20441;-70
2021/09/13 01:16:29;;;;;;;5.30;3.13;;;;;;;14.77;100.00;101154.75;5075897;28;20465;-69
2021/09/13 01:18:55;;;;;;;4.23;2.97;;;;;;;14.77;100.00;101160.19;5075945;28;20441;-68
2021/09/13 01:21:24;;;;;;;6.07;3.30;;;;;;;14.68;100.00;101151.97;5075916;28;20445;-70
2021/09/13 01:23:51;;;;;;;7.07;3.47;;;;;;;14.54;100.00;101152.09;5075799;28;20491;-68
2021/09/13 01:26:18;;;;;;;3.63;2.07;;;;;;;14.37;100.00;101144.59;5075858;28;20472;-70
2021/09/13 01:28:45;;;;;;;4.47;3.60;;;;;;;14.38;100.00;101159.03;5075542;28;20444;-69
2021/09/13 01:31:12;;;;;;;4.87;3.00;;;;;;;14.31;100.00;101155.94;5075412;28;20960;-69
2021/09/13 01:33:39;;;;;;;3.70;3.00;;;;;;;14.36;100.00;101161.25;5075758;28;20438;-70
2021/09/13 01:36:05;;;;;;;3.80;2.27;;;;;;;14.33;100.00;101151.78;5075555;28;20457;-69
2021/09/13 01:38:33;;;;;;;3.10;2.67;;;;;;;14.41;100.00;101163.06;5075311;28;20914;-69
2021/09/13 01:41:01;;;;;;;7.33;3.80;;;;;;;14.40;100.00;101159.53;5075533;28;20791;-69
2021/09/13 01:43:27;;;;;;;5.70;4.17;;;;;;;14.41;100.00;101157.59;5075296;28;20491;-70
2021/09/13 01:45:54;;;;;;;4.70;3.23;;;;;;;14.49;100.00;101160.41;5075119;28;20489;-70
2021/09/13 01:48:20;;;;;;;4.10;3.17;;;;;;;14.44;100.00;101151.53;5075143;28;20934;-70
2021/09/13 01:50:47;;;;;;;3.97;3.13;;;;;;;14.46;100.00;101155.53;5075207;28;20437;-69
2021/09/13 01:53:14;;;;;;;4.87;2.80;;;;;;;14.51;100.00;101157.34;5075318;28;20479;-69
2021/09/13 01:55:40;;;;;;;3.30;2.57;;;;;;;14.57;100.00;101162.38;5075243;28;20477;-69
2021/09/13 01:58:08;;;;;;;3.87;2.70;;;;;;;14.58;100.00;101161.25;5075189;28;20438;-69
2021/09/13 02:00:34;;;;;;;3.47;2.60;;;;;;;14.60;100.00;101167.19;5074852;28;20969;-70
2021/09/13 02:03:01;;;;;;;4.20;3.23;;;;;;;14.52;100.00;101175.31;5075089;28;20445;-70
2021/09/13 02:05:27;;;;;;;4.63;2.83;;;;;;;14.46;100.00;101173.81;5074905;28;20489;-70
2021/09/13 02:07:54;;;;;;;3.97;3.47;;;;;;;14.41;100.00;101174.75;5075022;28;20449;-69
2021/09/13 02:10:20;;;;;;;3.70;3.10;;;;;;;14.51;100.00;101171.78;5074983;28;20448;-70
2021/09/13 02:12:46;;;;;;;5.40;3.40;;;;;;;14.53;100.00;101174.22;5074868;28;20438;-69
2021/09/13 02:15:14;;;;;;;3.73;2.90;;;;;;;14.54;100.00;101175.81;5074760;28;20464;-70
2021/09/13 02:17:41;;;;;;;5.83;3.50;;;;;;;14.52;100.00;101180.75;5074815;28;20448;-70
2021/09/13 02:20:08;;;;;;;6.70;4.57;;;;;;;14.54;100.00;101173.91;5074754;28;20453;-70
2021/09/13 02:22:34;;;;;;;4.80;4.03;;;;;;;14.58;100.00;101176.81;5075005;28;20434;-69
2021/09/13 02:25:01;;;;;;;5.60;3.63;;;;;;;14.53;100.00;101172.28;5074500;28;20489;-69
2021/09/13 02:27:27;;;;;;;7.07;3.90;;;;;;;14.49;100.00;101176.75;5074572;28;20448;-70
2021/09/13 02:29:54;;;;;;;4.10;3.20;;;;;;;14.50;100.00;101166.66;5074595;28;20437;-69
2021/09/13 02:32:21;;;;;;;5.40;3.23;;;;;;;14.50;100.00;101169.38;5074551;28;20441;-70
2021/09/13 02:34:48;;;;;;;6.07;4.30;;;;;;;14.49;100.00;101174.03;5074353;28;20433;-69
2021/09/13 02:37:14;;;;;;;4.60;3.30;;;;;;;14.51;100.00;101173.72;5074464;28;20441;-69
2021/09/13 02:39:41;;;;;;;5.40;4.10;;;;;;;14.46;100.00;101173.81;5074411;28;20450;-70
2021/09/13 02:42:07;;;;;;;5.50;3.63;;;;;;;14.44;100.00;101173.34;5073954;28;20441;-70
2021/09/13 02:44:34;;;;;;;6.37;3.37;;;;;;;14.42;100.00;101170.91;5074248;28;20481;-70
2021/09/13 02:47:00;;;;;;;4.97;3.57;;;;;;;14.37;100.00;101173.78;5073665;28;20485;-70
2021/09/13 02:49:28;;;;;;;4.60;3.43;;;;;;;14.39;100.00;101179.72;5074266;28;20457;-70
2021/09/13 02:51:54;;;;;;;7.37;2.97;;;;;;;14.32;100.00;101180.16;5074125;28;20441;-69
2021/09/13 02:54:21;;;;;;;14.07;3.77;;;;;;;14.25;100.00;101176.25;5073770;28;20945;-70
2021/09/13 02:56:47;;;;;;;4.70;3.20;;;;;;;14.19;100.00;101175.59;5073679;28;20528;-69
2021/09/13 02:59:14;;;;;;;5.17;3.27;;;;;;;14.08;100.00;101179.69;5074128;28;20445;-69
2021/09/13 03:01:40;;;;;;;3.80;3.33;;;;;;;14.07;100.00;101180.78;5073392;28;20452;-69
2021/09/13 03:04:07;;;;;;;6.77;3.67;;;;;;;14.09;100.00;101179.38;5073466;28;20934;-70
2021/09/13 03:06:34;;;;;;;3.90;2.60;;;;;;;14.12;100.00;101180.66;5073511;28;20457;-70
2021/09/13 03:09:01;;;;;;;3.47;3.13;;;;;;;14.08;100.00;101174.25;5073766;28;20438;-70
2021/09/13 03:11:27;;;;;;;3.20;2.13;;;;;;;14.09;100.00;101178.56;5073728;28;20437;-70
2021/09/13 03:13:55;;;;;;;6.00;3.40;;;;;;;14.11;100.00;101182.56;5073720;28;20464;-70
2021/09/13 03:16:21;;;;;;;4.67;3.50;;;;;;;14.20;100.00;101184.56;5073582;28;20505;-70
2021/09/13 03:18:48;;;;;;;4.00;2.87;;;;;;;14.21;100.00;101192.44;5073673;28;20437;-69
2021/09/13 03:21:15;;;;;;;5.30;3.60;;;;;;;14.26;100.00;101188.78;5073691;28;20448;-69
2021/09/13 03:23:43;;;;;;;5.87;4.93;;;;;;;14.26;100.00;101189.59;5073568;28;20939;-70
2021/09/13 03:26:09;;;;;;;6.10;2.40;;;;;;;14.32;100.00;101196.50;5073120;28;20868;-69
2021/09/13 03:28:36;;;;;;;4.20;3.10;;;;;;;14.36;100.00;101193.97;5073559;28;20441;-70
2021/09/13 03:31:02;;;;;;;5.20;3.83;;;;;;;14.45;100.00;101196.75;5072795;28;20977;-69
2021/09/13 03:33:29;;;;;;;6.10;3.77;;;;;;;14.50;100.00;101204.81;5073500;28;20804;-70
2021/09/13 03:35:56;;;;;;;6.50;3.17;;;;;;;14.51;100.00;101201.78;5073389;28;20469;-70
2021/09/13 03:38:22;;;;;;;5.23;3.93;;;;;;;14.56;100.00;101193.47;5073080;28;20820;-71
2021/09/13 03:40:50;;;;;;;3.90;2.93;;;;;;;14.69;100.00;101197.22;5073449;28;20452;-69
2021/09/13 03:43:17;;;;;;;5.27;4.20;;;;;;;14.72;100.00;101193.88;5073360;28;20445;-69
2021/09/13 03:45:43;;;;;;;11.30;3.57;;;;;;;14.80;100.00;101195.84;5072990;28;20497;-69
2021/09/13 03:48:09;;;;;;;9.40;4.70;;;;;;;14.76;100.00;101197.59;5073307;28;20865;-69
2021/09/13 03:50:36;;;;;;;5.33;3.13;;;;;;;14.79;100.00;101202.41;5073242;28;20813;-70
2021/09/13 03:53:03;;;;;;;5.90;3.77;;;;;;;14.86;100.00;101204.69;5073333;28;20444;-69
2021/09/13 03:55:30;;;;;;;6.60;3.50;;;;;;;14.79;100.00;101205.16;5073182;28;20460;-70
2021/09/13 03:57:58;;;;;;;7.00;4.17;;;;;;;14.72;100.00;101202.06;5073192;28;20464;-69
2021/09/13 04:00:24;;;;;;;6.20;3.83;;;;;;;14.67;100.00;101213.09;5072835;28;20441;-70
2021/09/13 04:02:51;;;;;;;4.03;2.77;;;;;;;14.58;100.00;101207.59;5072769;28;20453;-69
2021/09/13 04:05:20;;;;;;;5.30;3.43;;;;;;;14.46;100.00;101211.97;5073034;28;20560;-71
2021/09/13 04:08:15;;;;;;;6.27;3.60;;;;;;;14.46;100.00;101210.06;5073101;28;20445;-69
2021/09/13 04:10:47;;;;;;;5.63;3.47;;;;;;;14.46;100.00;101209.25;5073128;28;20444;-70
2021/09/13 04:13:15;;;;;;;6.57;4.10;;;;;;;14.48;100.00;101207.88;5073426;28;20441;-69
2021/09/13 04:15:42;;;;;;;3.87;3.50;;;;;;;14.48;100.00;101215.22;5076362;28;20461;-70
2021/09/13 04:18:10;;;;;;;6.83;4.00;;;;;;;14.43;100.00;101218.03;5077124;28;20452;-69
2021/09/13 04:20:36;;;;;;;5.73;3.70;;;;;;;14.39;100.00;101212.44;5077100;28;20448;-70
2021/09/13 04:23:02;;;;;;;7.20;4.77;;;;;;;14.36;100.00;101216.56;5076716;28;20466;-70
2021/09/13 04:25:29;;;;;;;6.50;3.20;;;;;;;14.37;100.00;101204.56;5076888;28;20488;-70
2021/09/13 04:27:55;;;;;;;5.80;3.80;;;;;;;14.36;100.00;101215.78;5076881;28;20440;-71
2021/09/13 04:30:25;;;;;;;7.37;2.97;;;;;;;14.33;100.00;101214.47;5076958;28;20860;-70
2021/09/13 04:32:51;;;;;;;4.77;3.30;;;;;;;14.27;100.00;101217.63;5076507;28;20935;-71
2021/09/13 04:35:18;;;;;;;7.07;3.80;;;;;;;14.28;100.00;101211.88;5076447;28;20974;-70
2021/09/13 04:37:44;;;;;;;4.47;3.23;;;;;;;14.28;100.00;101211.88;5076702;28;20448;-69
2021/09/13 04:40:13;;;;;;;7.03;3.83;;;;;;;14.23;100.00;101217.44;5076821;28;20441;-70
2021/09/13 04:42:40;;;;;;;5.77;4.10;;;;;;;14.11;100.00;101212.53;5076631;28;20440;-70
2021/09/13 04:45:07;;;;;;;4.13;3.23;;;;;;;14.14;100.00;101219.31;5076226;28;20488;-71
2021/09/13 04:47:35;;;;;;;6.33;3.00;;;;;;;14.16;100.00;101217.06;5076515;28;20437;-70
2021/09/13 04:50:01;;;;;;;4.80;3.10;;;;;;;14.17;100.00;101224.16;5076493;28;20449;-70
2021/09/13 04:52:28;;;;;;;6.37;3.60;;;;;;;14.16;100.00;101230.69;5076413;28;20444;-71
2021/09/13 04:54:54;;;;;;;4.10;3.10;;;;;;;14.11;100.00;101220.72;5076262;28;20465;-70
2021/09/13 04:57:20;;;;;;;5.07;4.17;;;;;;;14.08;100.00;101226.00;5075992;28;20934;-71
2021/09/13 04:59:47;;;;;;;4.43;2.90;;;;;;;14.03;100.00;101217.94;5076226;28;20452;-71
2021/09/13 05:02:13;;;;;;;5.37;3.07;;;;;;;13.88;100.00;101222.63;5076292;28;20472;-71
2021/09/13 05:04:41;;;;;;;4.37;3.23;;;;;;;13.82;100.00;101218.41;5076131;28;20448;-70
2021/09/13 05:07:08;;;;;;;4.00;2.70;;;;;;;13.77;100.00;101221.25;5075809;28;20837;-70
2021/09/13 05:09:34;;;;;;;4.30;2.10;;;;;;;13.78;100.00;101220.13;5076142;28;20444;-70
2021/09/13 05:12:00;;;;;;;5.47;3.97;;;;;;;13.78;100.00;101217.41;5076086;28;20445;-69
2021/09/13 05:14:27;;;;;;;4.53;3.07;;;;;;;13.79;100.00;101218.22;5076029;28;20449;-70
2021/09/13 05:16:55;;;;;;;4.87;3.20;;;;;;;13.84;100.00;101223.53;5075976;28;20465;-70
2021/09/13 05:19:21;;;;;;;6.10;3.43;;;;;;;13.89;100.00;101224.22;5076036;28;20448;-69
2021/09/13 05:21:49;;;;;;;3.90;2.40;;;;;;;13.92;100.00;101222.03;5075836;28;20445;-69
2021/09/13 05:24:16;;;;;;;7.17;3.97;;;;;;;13.95;100.00;101224.13;5075897;28;20441;-69
2021/09/13 05:26:43;;;;;;;5.50;3.40;;;;;;;13.97;100.00;101222.69;5075353;28;20489;-70
2021/09/13 05:29:09;;;;;;;5.13;3.40;;;;;;;14.04;100.00;101225.81;5075814;28;20441;-70
2021/09/13 05:31:36;;;;;;;5.47;3.30;;;;;;;14.06;100.00;101226.28;5076003;28;20452;-70
2021/09/13 05:34:02;;;;;;;4.30;2.70;;;;;;;14.12;100.00;101224.25;5075667;28;20445;-69
2021/09/13 05:36:29;;;;;;;5.10;2.73;;;;;;;14.14;100.00;101220.09;5075567;28;20464;-70
2021/09/13 05:38:57;;;;;;;4.57;3.50;;;;;;;14.21;100.00;101222.41;5075589;28;20441;-69
2021/09/13 05:41:23;;;;;;;5.43;3.50;;;;;;;14.20;100.00;101228.97;5075477;28;20491;-69
2021/09/13 05:43:50;;;;;;;7.70;3.63;;;;;;;14.25;100.00;101226.09;5075447;28;20468;-69
2021/09/13 05:46:16;;;;;;;8.23;4.20;;;;;;;14.22;100.00;101232.19;5076272;28;20500;-66
2021/09/13 05:48:43;;;;;;;4.03;2.70;;;;;;;14.24;100.00;101224.50;5075723;28;20434;-69
2021/09/13 05:51:09;;;;;;;11.60;3.80;;;;;;;14.28;100.00;101225.50;5075167;28;20845;-69
2021/09/13 05:53:35;;;;;;;6.13;3.50;;;;;;;14.35;100.00;101231.31;5075352;28;20448;-70
2021/09/13 05:56:04;;;;;;;6.57;4.17;;;;;;;14.41;100.00;101231.19;5074885;28;21001;-70
2021/09/13 05:58:30;;;;;;;7.83;3.50;;;;;;;14.46;100.00;101229.13;5075176;28;20441;-69
2021/09/13 06:00:57;;;;;;;4.67;3.10;;;;;;;14.61;100.00;101228.00;5075232;28;20437;-70
2021/09/13 06:03:23;;;;;;;4.40;3.03;;;;;;;14.69;100.00;101219.03;5074883;28;20939;-70
2021/09/13 06:05:49;;;;;;;4.87;3.90;;;;;;;14.74;100.00;101220.81;5074954;28;20495;-69
2021/09/13 06:08:16;;;;;;;4.77;3.53;;;;;;;14.84;100.00;101226.03;5075075;28;20445;-70
2021/09/13 06:10:42;;;;;;;5.07;3.13;;;;;;;14.92;100.00;101224.44;5075007;28;20441;-69
2021/09/13 06:13:12;;;;;;;4.67;3.63;;;;;;;14.97;100.00;101227.03;5074954;28;20437;-69
2021/09/13 06:15:38;;;;;;;5.27;3.40;;;;;;;15.08;100.00;101220.97;5074769;28;20541;-70
2021/09/13 06:18:05;;;;;;;5.00;3.60;;;;;;;15.18;100.00;101227.25;5074844;28;20448;-70
2021/09/13 06:20:32;;;;;;;6.40;3.20;;;;;;;15.26;100.00;101224.56;5074898;28;20445;-69
2021/09/13 06:22:58;;;;;;;6.93;3.20;;;;;;;15.30;100.00;101222.81;5074963;28;20492;-69
2021/09/13 06:25:25;;;;;;;3.53;3.10;;;;;;;15.34;100.00;101231.19;5074512;28;20493;-70
2021/09/13 06:27:51;;;;;;;5.63;3.80;;;;;;;15.40;100.00;101232.63;5074951;28;20455;-70
2021/09/13 06:30:19;;;;;;;4.07;2.70;;;;;;;15.50;100.00;101237.81;5074526;28;20449;-68
2021/09/13 06:32:45;;;;;;;7.57;4.03;;;;;;;15.57;100.00;101229.13;5074472;28;20441;-68
2021/09/13 06:35:12;;;;;;;5.30;3.50;;;;;;;15.63;100.00;101252.47;5074675;28;20457;-70
2021/09/13 06:37:38;;;;;;;6.53;3.70;;;;;;;15.57;100.00;101238.13;5073500;28;20441;-70
2021/09/13 06:40:06;;;;;;;5.50;3.53;;;;;;;15.68;100.00;101244.13;5074431;28;20441;-68
2021/09/13 06:42:33;;;;;;;9.23;4.70;;;;;;;15.79;100.00;101255.53;5074046;28;20976;-70
2021/09/13 06:45:08;;;;;;;4.30;2.87;;;;;;;15.86;100.00;101251.22;5074007;28;20452;-70
2021/09/13 06:47:44;;;;;;;6.13;3.57;;;;;;;15.88;100.00;101254.44;5074208;28;20952;-70
2021/09/13 06:50:12;;;;;;;5.73;4.27;;;;;;;15.91;100.00;101258.47;5074158;28;20476;-69
2021/09/13 06:52:39;;;;;;;5.37;3.80;;;;;;;15.90;100.00;101256.84;5074139;28;20460;-70
2021/09/13 06:55:06;;;;;;;4.27;3.37;;;;;;;15.98;100.00;101264.25;5074041;28;20472;-70
2021/09/13 06:57:34;;;;;;;4.57;2.83;;;;;;;16.09;100.00;101257.34;5074149;28;20429;-68
2021/09/13 07:00:03;;;;;;;7.13;3.30;;;;;;;16.16;100.00;101265.06;5073989;28;20477;-71
2021/09/13 07:02:29;;;;;;;4.23;3.13;;;;;;;16.25;100.00;101273.28;5073993;28;20866;-70
2021/09/13 07:04:57;;;;;;;5.70;3.00;;;;;;;16.26;100.00;101269.41;5073824;28;20441;-74
2021/09/13 07:07:24;;;;;;;6.20;2.63;;;;;;;16.36;100.00;101275.34;5073814;28;20855;-72
2021/09/13 07:09:50;;;;;;;3.70;3.03;;;;;;;16.42;100.00;101277.91;5073916;28;20441;-72
2021/09/13 07:12:19;;;;;;;6.93;3.60;;;;;;;16.46;100.00;101279.66;5073927;28;20864;-72
2021/09/13 07:14:45;;;;;;;4.30;3.13;;;;;;;16.55;100.00;101274.19;5073795;28;20452;-71
2021/09/13 07:17:12;;;;;;;5.70;3.20;;;;;;;16.55;100.00;101274.97;5074303;28;20453;-71
2021/09/13 07:19:39;;;;;;;3.93;2.87;;;;;;;16.67;100.00;101279.00;5073646;28;20448;-70
2021/09/13 07:22:06;;;;;;;5.43;3.03;;;;;;;16.68;98.72;101286.88;5073594;28;20449;-69
2021/09/13 07:24:33;;;;;;;5.47;3.60;;;;;;;16.70;99.07;101283.81;5073648;28;20441;-70
2021/09/13 07:26:59;;;;;;;6.00;2.43;;;;;;;16.70;98.98;101270.94;5073432;28;20484;-69
2021/09/13 07:29:26;;;;;;;9.60;2.93;;;;;;;16.77;98.45;101295.09;5073584;28;20465;-70
2021/09/13 07:31:52;;;;;;;7.43;3.80;;;;;;;16.80;97.66;101284.31;5073248;28;20957;-69
2021/09/13 07:34:19;;;;;;;6.10;2.83;;;;;;;16.78;97.47;101285.78;5073453;28;20445;-69
2021/09/13 07:36:45;;;;;;;3.73;3.00;;;;;;;16.85;97.81;101286.06;5073347;28;20457;-70
2021/09/13 07:39:14;;;;;;;7.83;2.77;;;;;;;16.87;97.87;101286.56;5073458;28;20445;-69
2021/09/13 07:41:40;;;;;;;3.90;2.77;;;;;;;16.94;97.34;101283.31;5073058;28;20966;-69
2021/09/13 07:44:07;;;;;;;7.33;3.90;;;;;;;17.04;97.38;101283.72;5073384;28;20444;-71
2021/09/13 07:46:33;;;;;;;3.00;2.07;;;;;;;17.11;96.93;101283.25;5073002;28;20497;-69
2021/09/13 07:49:00;;;;;;;4.50;3.10;;;;;;;17.17;96.64;101297.53;5073082;28;20449;-69
2021/09/13 07:51:26;;;;;;;6.87;3.60;;;;;;;17.21;96.47;101299.31;5073207;28;20540;-70
2021/09/13 07:53:52;;;;;;;4.10;2.37;;;;;;;17.30;95.29;101305.53;5073239;28;20445;-69
2021/09/13 07:56:20;;;;;;;8.70;2.50;;;;;;;17.31;95.88;101304.44;5073147;28;20464;-69
2021/09/13 07:58:47;;;;;;;3.83;2.50;;;;;;;17.39;95.50;101303.56;5073243;28;20441;-68
2021/09/13 08:01:13;;;;;;;6.07;3.63;;;;;;;17.44;94.70;101304.50;5073154;28;20441;-69
2021/09/13 08:03:40;;;;;;;4.00;2.23;;;;;;;17.51;94.97;101304.81;5073159;28;20442;-69
2021/09/13 08:06:07;;;;;;;2.93;2.30;;;;;;;17.58;94.52;101316.88;5072908;28;20492;-69
2021/09/13 08:08:33;;;;;;;4.70;2.50;;;;;;;17.64;94.57;101317.47;5073089;28;20445;-69
2021/09/13 08:11:00;;;;;;;2.90;2.27;;;;;;;17.78;94.75;101314.53;5073155;28;20464;-69
2021/09/13 08:13:28;;;;;;;3.60;2.57;;;;;;;17.85;93.77;101320.28;5073095;28;20857;-69
2021/09/13 08:15:54;;;;;;;3.10;2.10;;;;;;;17.94;93.93;101325.72;5072692;28;21006;-69
2021/09/13 08:18:21;;;;;;;3.90;2.80;;;;;;;17.83;93.39;101322.53;5073007;28;20445;-70
2021/09/13 08:20:47;;;;;;;3.03;2.00;;;;;;;17.96;93.54;101328.91;5073084;28;20537;-70
2021/09/13 08:23:14;;;;;;;3.40;2.90;;;;;;;18.02;93.19;101333.88;5073037;28;20448;-69
2021/09/13 08:25:40;;;;;;;7.03;3.33;;;;;;;18.12;92.86;101332.69;5072837;28;20534;-69
2021/09/13 08:28:11;;;;;;;5.97;2.40;;;;;;;18.20;93.25;101331.03;5072912;28;20442;-70
2021/09/13 08:30:41;;;;;;;4.47;2.33;;;;;;;18.30;91.82;101336.91;5072301;28;20832;-69
2021/09/13 08:33:08;;;;;;;5.33;3.10;;;;;;;18.36;90.45;101343.78;5072862;28;20445;-69
2021/09/13 08:35:34;;;;;;;4.50;3.07;;;;;;;18.32;90.87;101345.59;5072653;28;20967;-69
2021/09/13 08:38:01;;;;;;;7.43;3.33;;;;;;;18.24;90.88;101343.75;5072560;28;20923;-68
2021/09/13 08:40:28;;;;;;;4.53;3.00;;;;;;;18.24;92.00;101345.66;5072717;28;20449;-70
2021/09/13 08:42:55;;;;;;;8.80;3.57;;;;;;;18.31;92.19;101351.41;5072495;28;20838;-70
2021/09/13 08:45:26;;;;;;;8.10;3.80;;;;;;;18.31;90.98;101351.41;5072530;28;20480;-70
2021/09/13 08:48:04;;;;;;;4.63;2.70;;;;;;;18.31;90.83;101352.22;5072742;28;20465;-69
2021/09/13 08:50:39;;;;;;;3.43;2.80;;;;;;;18.33;91.54;101347.22;5072436;28;20903;-68
2021/09/13 08:53:07;;;;;;;11.07;2.10;;;;;;;18.39;92.37;101362.31;5072686;28;20432;-69
2021/09/13 08:55:33;;;;;;;3.17;2.10;;;;;;;18.50;90.71;101361.91;5072414;28;20966;-68
2021/09/13 08:57:59;;;;;;;3.70;2.93;;;;;;;18.55;90.14;101361.69;5072801;28;20441;-70
2021/09/13 09:00:26;;;;;;;4.00;2.90;;;;;;;18.62;89.62;101372.94;5073790;28;20441;-69
2021/09/13 09:02:54;;;;;;;3.93;3.10;;;;;;;18.64;89.43;101362.47;5076078;28;20441;-68
2021/09/13 09:05:21;;;;;;;3.97;3.10;;;;;;;18.73;90.10;101371.44;5076219;28;20464;-69
2021/09/13 09:07:50;;;;;;;5.23;2.63;;;;;;;18.85;89.13;101368.72;5076067;28;20485;-70
2021/09/13 09:10:18;;;;;;;4.57;3.37;;;;;;;19.09;88.99;101375.44;5076303;28;20713;-70
2021/09/13 09:13:03;;;;;;;4.70;3.10;;;;;;;19.26;87.42;101372.50;5076225;28;20447;-68
2021/09/13 09:15:31;;;;;;;3.57;2.27;;;;;;;19.44;87.04;101381.34;5075993;28;20501;-70
2021/09/13 09:18:01;;;;;;;11.53;3.20;;;;;;;19.53;87.02;101392.25;5075910;28;20438;-69
2021/09/13 09:20:28;;;;;;;4.60;2.87;;;;;;;19.70;87.07;101393.97;5076177;28;20441;-69
2021/09/13 09:23:02;;;;;;;10.27;2.80;;;;;;;19.71;84.44;101396.41;5075578;28;20433;-69
2021/09/13 09:25:30;;;;;;;3.00;2.37;;;;;;;19.72;84.74;101403.50;5075536;28;20460;-69
2021/09/13 09:27:58;;;;;;;3.77;2.77;;;;;;;19.63;84.98;101403.63;5075701;28;20504;-69
2021/09/13 09:30:35;;;;;;;5.03;2.87;;;;;;;19.57;85.79;101402.22;5075410;28;20952;-69
2021/09/13 09:33:09;;;;;;;2.87;2.10;;;;;;;19.55;85.81;101404.50;5075852;28;20429;-69
2021/09/13 09:35:47;;;;;;;7.00;2.20;;;;;;;19.23;86.66;101408.09;5075695;28;20461;-69
2021/09/13 09:38:31;;;;;;;2.57;2.10;;;;;;;19.20;87.00;101398.56;5075746;28;20435;-69
2021/09/13 09:41:03;;;;;;;3.70;2.40;;;;;;;19.10;87.46;101408.06;5075649;28;20433;-69
2021/09/13 09:43:30;;;;;;;4.53;1.63;;;;;;;19.21;87.62;101405.66;5075521;28;20450;-70
2021/09/13 09:45:57;;;;;;;4.20;2.17;;;;;;;19.19;86.62;101407.16;5075355;28;20508;-69
2021/09/13 09:48:32;;;;;;;3.00;1.53;;;;;;;19.14;86.53;101402.69;5075407;28;20496;-69
2021/09/13 09:50:59;;;;;;;2.97;2.00;;;;;;;19.13;86.77;101396.41;5075436;28;20509;-69
2021/09/13 09:53:29;;;;;;;5.10;2.10;;;;;;;19.13;87.60;101404.63;5075421;28;20438;-68
2021/09/13 09:56:10;;;;;;;3.80;2.47;;;;;;;19.22;87.38;101412.78;5075164;28;20556;-68
2021/09/13 09:58:57;;;;;;;2.47;2.17;;;;;;;19.48;86.58;101414.44;5075264;28;20555;-71
2021/09/13 10:01:30;;;;;;;3.20;1.90;;;;;;;19.56;85.33;101408.84;5075179;28;20449;-71
2021/09/13 10:04:12;;;;;;;4.03;1.73;;;;;;;19.57;84.71;101415.16;5075238;28;20468;-71
2021/09/13 10:06:38;;;;;;;6.90;2.50;;;;;;;19.66;84.42;101413.13;5074942;28;20484;-69
2021/09/13 10:09:05;;;;;;;4.50;1.60;;;;;;;19.55;84.96;101412.72;5075090;28;20452;-69
2021/09/13 10:11:32;;;;;;;3.23;1.80;;;;;;;19.73;84.46;101409.81;5074889;28;20440;-69
2021/09/13 10:13:59;;;;;;;13.03;2.20;;;;;;;19.86;85.28;101411.41;5074853;28;20442;-69
2021/09/13 10:16:29;;;;;;;2.73;1.70;;;;;;;19.78;84.39;101413.13;5074723;28;20827;-69
2021/09/13 10:18:56;;;;;;;3.93;1.70;;;;;;;19.88;83.91;101420.13;5074147;28;20974;-70
2021/09/13 10:21:23;;;;;;;3.03;2.23;;;;;;;19.94;84.25;101420.69;5074755;28;20441;-68
2021/09/13 10:23:50;;;;;;;1.47;1.13;;;;;;;19.94;83.40;101420.69;5074770;28;20491;-68
2021/09/13 10:26:18;;;;;;;2.50;1.73;;;;;;;19.67;83.57;101416.69;5074586;28;20461;-70
2021/09/13 10:29:32;;;;;;;5.37;2.23;;;;;;;19.66;84.87;101421.38;5074660;28;20487;-72
2021/09/13 10:32:04;;;;;;;2.80;1.80;;;;;;;19.69;85.17;101428.13;5074864;28;20425;-69
2021/09/13 10:34:33;;;;;;;2.63;2.43;;;;;;;19.56;84.51;101417.06;5075037;28;20428;-69
2021/09/13 10:37:06;;;;;;;3.77;2.03;;;;;;;19.28;85.87;101422.41;5074426;28;20543;-68
2021/09/13 10:39:54;;;;;;;3.13;1.70;;;;;;;19.30;86.99;101417.41;5074432;28;20406;-67
2021/09/13 10:42:32;;;;;;;2.13;1.93;;;;;;;19.39;87.31;101429.09;5074432;28;20456;-68
2021/09/13 10:45:17;;;;;;;3.73;2.10;;;;;;;19.41;86.21;101418.56;5073835;28;20422;-69
2021/09/13 10:47:46;;;;;;;2.20;1.63;;;;;;;19.55;86.44;101420.97;5074198;28;20483;-69
2021/09/13 10:50:18;;;;;;;1.80;1.43;;;;;;;19.57;86.00;101420.66;5074182;28;20441;-68
2021/09/13 10:52:47;;;;;;;3.13;1.83;;;;;;;19.62;84.76;101414.97;5074216;28;20429;-67
2021/09/13 10:55:19;;;;;;;10.20;2.13;;;;;;;19.73;84.92;101420.81;5073800;28;20986;-67
2021/09/13 10:57:53;;;;;;;2.90;1.93;;;;;;;19.95;84.43;101423.09;5074106;28;20452;-68
2021/09/13 11:00:53;;;;;;;3.47;2.10;;;;;;;20.15;83.37;101413.13;5074089;28;20421;-68
2021/09/13 11:03:38;;;;;;;4.27;2.20;;;;;;;20.20;82.21;101420.34;5073996;28;20812;-68
2021/09/13 11:06:24;;;;;;;1.77;1.57;;;;;;;20.25;83.07;101420.09;5073915;28;20834;-68
2021/09/13 11:08:54;;;;;;;2.13;1.83;;;;;;;20.10;83.38;101427.91;5073838;28;20488;-67
2021/09/13 11:11:24;;;;;;;2.50;1.83;;;;;;;19.77;84.22;101428.03;5073846;28;20449;-68
2021/09/13 11:13:57;;;;;;;7.50;1.57;;;;;;;19.71;86.71;101423.91;5073839;28;20437;-67
2021/09/13 11:16:25;;;;;;;3.67;1.70;;;;;;;19.52;88.86;101423.59;5073771;28;20458;-68
2021/09/13 11:18:53;;;;;;;1.80;1.27;;;;;;;19.42;89.04;101417.41;5073387;28;20458;-67
2021/09/13 11:21:22;;;;;;;6.23;2.50;;;;;;;19.57;89.06;101423.41;5073576;28;20445;-68
2021/09/13 11:23:50;;;;;;;3.03;1.50;;;;;;;19.76;88.38;101426.41;5073336;28;20441;-68